Time;durP1;ratioP1;P1;durP2;ratioP2;P2;SDS_P1;SDS_P2;PMS_P1;PMS_P2;Temp;Humidity;BMP_temperature;BMP_pressure;BME280_temperature;BME280_humidity;BME280_pressure;Samples;Min_cycle;Max_cycle;Signal;HPM_P1;HPM_P2
2023/08/09 00:00:26;;;;;;;24.55;23.70;;;18.20;99.90;;;;;;5078653;28;20266;-67
2023/08/09 00:02:53;;;;;;;24.35;23.55;;;17.90;99.90;;;;;;5075047;28;20203;-67
2023/08/09 00:05:21;;;;;;;24.70;23.88;;;18.00;99.90;;;;;;5073368;28;20235;-68
2023/08/09 00:07:48;;;;;;;23.50;22.60;;;18.00;99.90;;;;;;5071529;28;20227;-67
2023/08/09 00:10:15;;;;;;;22.40;21.60;;;18.00;99.90;;;;;;5070634;28;20211;-68
2023/08/09 00:12:41;;;;;;;24.63;23.73;;;18.00;99.90;;;;;;5071022;28;20246;-67
2023/08/09 00:15:09;;;;;;;23.88;23.02;;;18.00;99.90;;;;;;5071901;28;20210;-68
2023/08/09 00:17:36;;;;;;;24.35;23.55;;;17.90;99.90;;;;;;5070836;28;20500;-68
2023/08/09 00:20:04;;;;;;;24.95;24.10;;;18.00;99.90;;;;;;5070297;28;20199;-67
2023/08/09 00:22:32;;;;;;;25.65;24.75;;;18.00;99.90;;;;;;5072032;28;20290;-67
2023/08/09 00:24:59;;;;;;;24.83;23.92;;;17.90;99.90;;;;;;5070737;28;20229;-67
2023/08/09 00:27:28;;;;;;;24.48;23.67;;;17.90;99.90;;;;;;5071422;28;20323;-67
2023/08/09 00:29:55;;;;;;;26.85;25.85;;;17.90;99.90;;;;;;5070033;28;20661;-67
2023/08/09 00:32:22;;;;;;;24.20;23.40;;;17.90;99.90;;;;;;5070509;28;20764;-66
2023/08/09 00:34:49;;;;;;;21.23;20.52;;;17.90;99.90;;;;;;5070472;28;20696;-68
2023/08/09 00:37:15;;;;;;;23.05;22.25;;;17.80;99.90;;;;;;5070500;28;20229;-67
2023/08/09 00:39:44;;;;;;;21.10;20.38;;;17.80;99.90;;;;;;5069419;28;20208;-68
2023/08/09 00:42:10;;;;;;;21.95;21.15;;;17.70;99.90;;;;;;5070230;28;20211;-66
2023/08/09 00:44:37;;;;;;;21.90;21.15;;;17.70;99.90;;;;;;5070361;28;20795;-67
2023/08/09 00:47:06;;;;;;;22.02;21.23;;;17.60;99.90;;;;;;5069914;28;20254;-68
2023/08/09 00:49:33;;;;;;;21.05;20.35;;;17.60;99.90;;;;;;5069197;28;20207;-68
2023/08/09 00:52:00;;;;;;;22.58;21.77;;;17.70;99.90;;;;;;5069470;28;20293;-68
2023/08/09 00:54:28;;;;;;;23.15;22.35;;;17.70;99.90;;;;;;5071137;28;20274;-68
2023/08/09 00:56:56;;;;;;;25.08;24.15;;;17.70;99.90;;;;;;5069588;28;20234;-69
2023/08/09 00:59:23;;;;;;;21.08;20.38;;;17.70;99.90;;;;;;5069366;28;20286;-69
2023/08/09 01:01:50;;;;;;;21.55;20.77;;;17.70;99.90;;;;;;5069730;28;20206;-68
2023/08/09 01:04:17;;;;;;;22.27;21.48;;;17.50;99.90;;;;;;5069841;28;20213;-67
2023/08/09 01:06:52;;;;;;;21.50;20.77;;;17.50;99.90;;;;;;5069765;28;20309;-66
2023/08/09 01:09:30;;;;;;;23.88;22.98;;;17.40;99.90;;;;;;5069994;28;20218;-67
2023/08/09 01:12:03;;;;;;;23.42;22.63;;;17.50;99.90;;;;;;5069688;28;20214;-67
2023/08/09 01:14:30;;;;;;;22.70;21.90;;;17.40;99.90;;;;;;5069602;28;20213;-67
2023/08/09 01:17:00;;;;;;;22.20;21.38;;;17.40;99.90;;;;;;5069169;28;20242;-67
2023/08/09 01:19:36;;;;;;;20.38;19.65;;;17.50;99.90;;;;;;5068677;28;20600;-66
2023/08/09 01:22:07;;;;;;;25.93;25.03;;;17.50;99.90;;;;;;5069430;28;20203;-68
2023/08/09 01:24:35;;;;;;;27.83;26.80;;;17.50;99.90;;;;;;5068611;28;20215;-69
2023/08/09 01:27:02;;;;;;;23.80;22.92;;;17.50;99.90;;;;;;5071115;28;20338;-66
2023/08/09 01:29:29;;;;;;;22.77;21.97;;;17.40;99.90;;;;;;5070186;28;20207;-67
2023/08/09 01:31:56;;;;;;;20.48;19.77;;;17.40;99.90;;;;;;5070161;28;20629;-67
2023/08/09 01:34:23;;;;;;;20.92;20.15;;;17.50;99.90;;;;;;5069203;28;20210;-69
2023/08/09 01:36:51;;;;;;;18.38;17.75;;;17.40;99.90;;;;;;5069341;28;20238;-69
2023/08/09 01:39:24;;;;;;;18.55;17.92;;;17.40;99.90;;;;;;5075865;28;20564;-69
2023/08/09 01:41:53;;;;;;;20.90;20.20;;;17.30;99.90;;;;;;5086020;28;20216;-69
2023/08/09 01:44:20;;;;;;;19.48;18.80;;;17.40;99.90;;;;;;5089824;28;20579;-67
2023/08/09 01:46:48;;;;;;;25.65;24.73;;;17.30;99.90;;;;;;5089370;28;20230;-68
2023/08/09 01:49:21;;;;;;;23.87;23.07;;;17.30;99.90;;;;;;5088121;28;20202;-67
2023/08/09 01:51:48;;;;;;;26.10;25.10;;;17.30;99.90;;;;;;5089139;28;20213;-68
2023/08/09 01:54:17;;;;;;;21.58;20.85;;;17.30;99.90;;;;;;5089134;28;20647;-67
2023/08/09 01:56:44;;;;;;;26.35;25.40;;;17.40;99.90;;;;;;5089112;28;20249;-69
2023/08/09 01:59:12;;;;;;;25.05;24.15;;;17.40;99.90;;;;;;5088620;28;20840;-68
2023/08/09 02:01:39;;;;;;;25.70;24.80;;;17.40;99.90;;;;;;5088350;28;20206;-68
2023/08/09 02:04:09;;;;;;;25.15;24.25;;;17.40;99.90;;;;;;5090198;28;20194;-67
2023/08/09 02:06:38;;;;;;;25.90;25.00;;;17.50;99.90;;;;;;5089857;28;20688;-67
2023/08/09 02:09:06;;;;;;;25.38;24.48;;;17.40;99.90;;;;;;5088702;28;20206;-64
2023/08/09 02:11:33;;;;;;;25.50;24.60;;;17.50;99.90;;;;;;5089255;28;20225;-68
2023/08/09 02:13:59;;;;;;;26.65;25.75;;;17.50;99.90;;;;;;5088877;28;20241;-66
2023/08/09 02:16:28;;;;;;;26.98;26.02;;;17.50;99.90;;;;;;5102586;22;20230;-68
2023/08/09 02:18:55;;;;;;;26.65;25.75;;;17.40;99.90;;;;;;5049438;28;20212;-68
2023/08/09 02:21:22;;;;;;;25.67;24.77;;;17.40;99.90;;;;;;5055477;28;20719;-67
2023/08/09 02:23:49;;;;;;;23.98;23.08;;;17.40;99.90;;;;;;5054157;28;20206;-66
2023/08/09 02:26:18;;;;;;;23.08;22.27;;;17.40;99.90;;;;;;5049860;28;20228;-67
2023/08/09 02:28:45;;;;;;;23.23;22.35;;;17.30;99.90;;;;;;5050031;28;20869;-66
2023/08/09 02:31:12;;;;;;;25.45;24.55;;;17.30;99.90;;;;;;5052557;28;20214;-67
2023/08/09 02:33:41;;;;;;;24.58;23.73;;;17.30;99.90;;;;;;5053464;28;20291;-66
2023/08/09 02:36:08;;;;;;;22.35;21.58;;;17.30;99.90;;;;;;5052300;28;20677;-66
2023/08/09 02:38:35;;;;;;;22.05;21.25;;;17.30;99.90;;;;;;5054378;28;20228;-68
2023/08/09 02:41:03;;;;;;;21.97;21.23;;;17.30;99.90;;;;;;5053707;28;20860;-65
2023/08/09 02:43:30;;;;;;;26.63;25.73;;;17.20;99.90;;;;;;5054830;28;20211;-67
2023/08/09 02:45:57;;;;;;;27.63;26.67;;;17.20;99.90;;;;;;5054200;28;20409;-65
2023/08/09 02:48:24;;;;;;;25.13;24.25;;;17.20;99.90;;;;;;5054169;28;20311;-66
2023/08/09 02:50:53;;;;;;;25.77;24.90;;;17.20;99.90;;;;;;5053526;28;20717;-67
2023/08/09 02:53:20;;;;;;;23.57;22.77;;;17.20;99.90;;;;;;5054011;28;20299;-66
2023/08/09 02:55:47;;;;;;;23.75;22.95;;;17.20;99.90;;;;;;5053957;28;20208;-66
2023/08/09 02:58:14;;;;;;;23.42;22.63;;;17.20;99.90;;;;;;5053725;28;20224;-67
2023/08/09 03:00:41;;;;;;;22.55;21.75;;;17.20;99.90;;;;;;5053575;28;20212;-66
2023/08/09 03:03:08;;;;;;;24.20;23.38;;;17.20;99.90;;;;;;5053088;28;20207;-67
2023/08/09 03:05:35;;;;;;;23.00;22.23;;;17.20;99.90;;;;;;5052555;28;20226;-66
2023/08/09 03:08:03;;;;;;;22.08;21.30;;;17.20;99.90;;;;;;5052192;28;20249;-67
2023/08/09 03:10:31;;;;;;;27.13;26.13;;;17.20;99.90;;;;;;5051654;28;20231;-67
2023/08/09 03:12:57;;;;;;;27.37;26.43;;;17.10;99.90;;;;;;5052237;28;20214;-67
2023/08/09 03:15:24;;;;;;;28.02;27.02;;;17.10;99.90;;;;;;5052092;28;20211;-67
2023/08/09 03:17:51;;;;;;;26.27;25.37;;;17.10;99.90;;;;;;5052049;28;20744;-65
2023/08/09 03:20:18;;;;;;;26.70;25.73;;;17.20;99.90;;;;;;5061895;28;20209;-67
2023/08/09 03:22:47;;;;;;;27.73;26.73;;;17.20;99.90;;;;;;5062602;28;20223;-66
2023/08/09 03:25:16;;;;;;;27.77;26.77;;;17.20;99.90;;;;;;5056121;28;20215;-69
2023/08/09 03:27:43;;;;;;;26.42;25.52;;;17.10;99.90;;;;;;5060747;28;20234;-67
2023/08/09 03:30:11;;;;;;;28.80;27.80;;;17.20;99.90;;;;;;5054299;28;20250;-66
2023/08/09 03:32:38;;;;;;;29.03;28.03;;;17.20;99.90;;;;;;5053798;28;20212;-67
2023/08/09 03:35:06;;;;;;;27.93;26.97;;;17.20;99.90;;;;;;5053811;28;20210;-65
2023/08/09 03:37:33;;;;;;;28.98;27.98;;;17.30;99.90;;;;;;5052069;28;20608;-67
2023/08/09 03:40:00;;;;;;;26.13;25.23;;;17.20;99.90;;;;;;5051162;28;20208;-68
2023/08/09 03:42:28;;;;;;;27.60;26.52;;;17.20;99.90;;;;;;5052339;28;20207;-67
2023/08/09 03:44:55;;;;;;;27.80;26.80;;;17.20;99.90;;;;;;5051754;28;20840;-66
2023/08/09 03:47:22;;;;;;;30.25;29.15;;;17.30;99.90;;;;;;5051863;28;20245;-66
2023/08/09 03:49:49;;;;;;;25.95;25.05;;;17.30;99.90;;;;;;5051275;28;20568;-68
2023/08/09 03:52:15;;;;;;;28.23;27.23;;;17.30;99.90;;;;;;5051690;28;20207;-66
2023/08/09 03:54:42;;;;;;;29.40;28.40;;;17.30;99.90;;;;;;5051679;28;20218;-67
2023/08/09 03:57:09;;;;;;;28.60;27.60;;;17.30;99.90;;;;;;5051815;28;20591;-66
2023/08/09 03:59:38;;;;;;;29.55;28.55;;;17.30;99.90;;;;;;5051019;28;20218;-64
2023/08/09 04:02:05;;;;;;;28.90;27.90;;;17.30;99.90;;;;;;5052102;28;20208;-67
2023/08/09 04:04:32;;;;;;;30.70;29.57;;;17.40;99.90;;;;;;5052000;28;20564;-65
2023/08/09 04:06:59;;;;;;;28.88;27.88;;;17.40;99.90;;;;;;5064014;28;20228;-69
2023/08/09 04:09:26;;;;;;;29.75;28.67;;;17.40;99.90;;;;;;5054881;28;20207;-66
2023/08/09 04:11:52;;;;;;;29.23;28.23;;;17.40;99.90;;;;;;5056270;28;20212;-68
2023/08/09 04:14:20;;;;;;;28.95;27.95;;;17.40;99.90;;;;;;5064425;28;20200;-66
2023/08/09 04:16:48;;;;;;;26.83;25.90;;;17.40;99.90;;;;;;5056524;28;20259;-67
2023/08/09 04:19:15;;;;;;;28.30;27.30;;;17.40;99.90;;;;;;5050208;28;20238;-67
2023/08/09 04:21:42;;;;;;;25.90;25.00;;;17.40;99.90;;;;;;5050967;28;20204;-67
2023/08/09 04:24:10;;;;;;;27.23;26.33;;;17.50;99.90;;;;;;5050817;28;20295;-68
2023/08/09 04:26:37;;;;;;;27.83;26.83;;;17.40;99.90;;;;;;5051008;28;20228;-66
2023/08/09 04:29:04;;;;;;;31.00;29.90;;;17.40;99.90;;;;;;5050374;28;20615;-66
2023/08/09 04:31:31;;;;;;;26.73;25.83;;;17.40;99.90;;;;;;5050628;28;20793;-67
2023/08/09 04:33:59;;;;;;;25.45;24.55;;;17.40;99.90;;;;;;5051382;28;20210;-64
2023/08/09 04:36:27;;;;;;;26.75;25.85;;;17.40;99.90;;;;;;5051364;28;20208;-65
2023/08/09 04:38:54;;;;;;;28.13;27.13;;;17.40;99.90;;;;;;5050916;28;20212;-68
2023/08/09 04:41:20;;;;;;;26.48;25.52;;;17.50;99.90;;;;;;5050011;28;20214;-64
2023/08/09 04:43:47;;;;;;;27.17;26.23;;;17.50;99.90;;;;;;5050835;28;20199;-64
2023/08/09 04:46:16;;;;;;;27.03;26.13;;;17.50;99.90;;;;;;5050355;28;20710;-66
2023/08/09 04:48:43;;;;;;;25.63;24.73;;;17.50;99.90;;;;;;5050889;28;20611;-65
2023/08/09 04:51:12;;;;;;;26.08;25.17;;;17.50;99.90;;;;;;5049732;28;20262;-67
2023/08/09 04:53:39;;;;;;;28.40;27.40;;;17.50;99.90;;;;;;5049986;28;20204;-65
2023/08/09 04:56:05;;;;;;;28.20;27.20;;;17.50;99.90;;;;;;5050383;28;20200;-65
2023/08/09 04:58:32;;;;;;;27.00;26.10;;;17.50;99.90;;;;;;5050223;28;20331;-65
2023/08/09 05:01:00;;;;;;;28.90;27.90;;;17.50;99.90;;;;;;5050863;28;20206;-65
2023/08/09 05:03:26;;;;;;;29.27;28.27;;;17.50;99.90;;;;;;5055963;28;20306;-67
2023/08/09 05:05:53;;;;;;;27.95;26.95;;;17.60;99.90;;;;;;5054382;28;20414;-66
2023/08/09 05:08:21;;;;;;;27.23;26.30;;;17.60;99.90;;;;;;5051485;28;20235;-64
2023/08/09 05:10:48;;;;;;;29.05;28.05;;;17.60;99.90;;;;;;5050417;28;20580;-65
2023/08/09 05:13:15;;;;;;;28.40;27.42;;;17.60;99.90;;;;;;5052792;28;20267;-66
2023/08/09 05:15:42;;;;;;;28.40;27.40;;;17.70;99.90;;;;;;5052213;28;20754;-65
2023/08/09 05:18:08;;;;;;;29.00;28.00;;;17.70;99.90;;;;;;5051479;28;20228;-67
2023/08/09 05:20:35;;;;;;;29.17;28.08;;;17.70;99.90;;;;;;5050981;28;20604;-68
2023/08/09 05:23:03;;;;;;;28.50;27.50;;;17.70;99.90;;;;;;5062078;28;20275;-66
2023/08/09 05:25:31;;;;;;;26.90;26.00;;;17.70;99.90;;;;;;5060991;28;20235;-66
2023/08/09 05:27:58;;;;;;;26.02;25.13;;;17.70;99.90;;;;;;5054092;28;20232;-67
2023/08/09 05:30:24;;;;;;;24.13;23.30;;;17.70;99.90;;;;;;5050115;28;20293;-67
2023/08/09 05:32:51;;;;;;;25.70;24.83;;;17.70;99.90;;;;;;5051275;28;20200;-66
2023/08/09 05:35:18;;;;;;;26.20;25.30;;;17.70;99.90;;;;;;5051347;28;20214;-65
2023/08/09 05:37:45;;;;;;;28.17;27.08;;;17.70;99.90;;;;;;5053314;28;20256;-67
2023/08/09 05:40:13;;;;;;;29.90;28.77;;;17.70;99.90;;;;;;5053485;28;20282;-65
2023/08/09 05:42:42;;;;;;;28.25;27.27;;;17.70;99.90;;;;;;5050547;28;20207;-65
2023/08/09 05:45:09;;;;;;;27.23;26.23;;;17.70;99.90;;;;;;5050204;28;20212;-66
2023/08/09 05:47:36;;;;;;;28.60;27.60;;;17.70;99.90;;;;;;5049581;28;20768;-65
2023/08/09 05:50:04;;;;;;;30.03;28.93;;;17.80;99.90;;;;;;5049198;28;20211;-67
2023/08/09 05:52:31;;;;;;;25.40;24.50;;;17.80;99.90;;;;;;5050466;28;20265;-65
2023/08/09 05:54:58;;;;;;;25.38;24.50;;;17.80;99.90;;;;;;5062897;28;20812;-70
2023/08/09 05:57:26;;;;;;;29.15;28.13;;;17.80;99.90;;;;;;5052333;28;20775;-64
2023/08/09 05:59:54;;;;;;;27.88;26.90;;;17.80;99.90;;;;;;5049268;28;20200;-66
2023/08/09 06:02:22;;;;;;;26.25;25.33;;;17.90;99.90;;;;;;5049737;28;20216;-66
2023/08/09 06:04:49;;;;;;;25.20;24.30;;;18.00;99.90;;;;;;5053805;28;20211;-65
2023/08/09 06:07:17;;;;;;;22.83;22.03;;;18.00;99.90;;;;;;5064320;28;20239;-67
2023/08/09 06:09:43;;;;;;;26.63;25.70;;;18.00;99.90;;;;;;5060693;28;20231;-65
2023/08/09 06:12:10;;;;;;;23.80;23.00;;;18.10;99.90;;;;;;5052496;28;20208;-68
2023/08/09 06:14:37;;;;;;;24.58;23.73;;;18.10;99.90;;;;;;5052966;28;20207;-64
2023/08/09 06:17:05;;;;;;;25.60;24.60;;;18.20;99.90;;;;;;5052325;28;20358;-65
2023/08/09 06:19:33;;;;;;;22.88;22.08;;;18.30;99.90;;;;;;5052094;28;20207;-65
2023/08/09 06:22:00;;;;;;;25.07;24.13;;;18.30;99.90;;;;;;5053577;28;20207;-66
2023/08/09 06:24:27;;;;;;;22.90;22.07;;;18.30;99.90;;;;;;5052482;28;20234;-68
2023/08/09 06:26:54;;;;;;;24.23;23.40;;;18.40;99.90;;;;;;5052665;28;20251;-66
2023/08/09 06:29:21;;;;;;;18.60;17.97;;;18.40;99.90;;;;;;5053922;28;20207;-63
2023/08/09 06:31:48;;;;;;;22.17;21.40;;;18.50;99.90;;;;;;5054246;28;20200;-64
2023/08/09 06:34:17;;;;;;;17.07;16.47;;;18.60;99.90;;;;;;5054330;28;20219;-65
2023/08/09 06:36:44;;;;;;;14.82;14.32;;;18.60;99.90;;;;;;5054209;28;20219;-64
2023/08/09 06:39:10;;;;;;;15.30;14.70;;;18.70;99.90;;;;;;5067067;28;20228;-66
2023/08/09 06:41:37;;;;;;;9.73;9.40;;;18.80;99.90;;;;;;5066793;28;20200;-65
2023/08/09 06:44:05;;;;;;;9.67;9.37;;;19.00;99.90;;;;;;5054909;28;20212;-64
2023/08/09 06:46:32;;;;;;;9.40;9.10;;;19.10;99.90;;;;;;5055706;28;20255;-65
2023/08/09 06:48:59;;;;;;;8.55;8.25;;;19.20;99.90;;;;;;5055558;28;20204;-64
2023/08/09 06:51:27;;;;;;;9.00;8.70;;;19.30;99.90;;;;;;5054044;28;20214;-64
2023/08/09 06:53:54;;;;;;;8.47;8.17;;;19.40;99.90;;;;;;5054142;28;20214;-63
2023/08/09 06:56:20;;;;;;;8.52;8.02;;;19.40;99.90;;;;;;5057923;28;20303;-64
2023/08/09 06:58:47;;;;;;;7.47;7.27;;;19.50;99.90;;;;;;5054282;28;20207;-65
2023/08/09 07:01:14;;;;;;;7.72;7.43;;;19.60;99.90;;;;;;5052146;28;20218;-64
2023/08/09 07:03:41;;;;;;;8.45;8.15;;;19.60;99.90;;;;;;5054478;28;20697;-65
2023/08/09 07:06:08;;;;;;;7.85;7.55;;;19.70;99.90;;;;;;5054956;28;20206;-67
2023/08/09 07:08:36;;;;;;;8.87;8.57;;;19.70;99.90;;;;;;5053196;28;20274;-63
2023/08/09 07:11:03;;;;;;;8.50;7.97;;;19.80;99.90;;;;;;5051694;28;20215;-65
2023/08/09 07:13:30;;;;;;;8.27;7.97;;;19.80;99.90;;;;;;5052359;28;20208;-66
2023/08/09 07:15:57;;;;;;;8.32;8.02;;;19.90;99.90;;;;;;5051900;28;20210;-64
2023/08/09 07:18:25;;;;;;;8.40;8.10;;;19.90;99.90;;;;;;5051989;28;20238;-63
2023/08/09 07:20:52;;;;;;;8.23;7.93;;;20.00;99.90;;;;;;5051399;28;20310;-64
2023/08/09 07:23:19;;;;;;;8.27;7.97;;;20.00;99.90;;;;;;5052537;28;20211;-66
2023/08/09 07:25:47;;;;;;;8.15;7.85;;;20.10;99.90;;;;;;5055067;28;20275;-66
2023/08/09 07:28:14;;;;;;;8.75;8.45;;;20.20;99.90;;;;;;5067258;28;20227;-68
2023/08/09 07:30:41;;;;;;;8.23;7.93;;;20.20;99.90;;;;;;5055893;28;20200;-64
2023/08/09 07:33:08;;;;;;;8.50;8.20;;;20.20;99.90;;;;;;5052568;28;20207;-65
2023/08/09 07:35:35;;;;;;;8.55;8.25;;;20.20;99.90;;;;;;5052840;28;20692;-65
2023/08/09 07:38:02;;;;;;;8.60;8.30;;;20.20;99.90;;;;;;5052740;28;20262;-66
2023/08/09 07:40:28;;;;;;;9.38;9.07;;;20.20;99.90;;;;;;5069272;28;20672;-65
2023/08/09 07:42:58;;;;;;;8.82;8.52;;;20.20;99.90;;;;;;5063188;28;20212;-65
2023/08/09 07:45:25;;;;;;;9.48;9.18;;;20.20;99.90;;;;;;5056700;28;20215;-66
2023/08/09 07:47:52;;;;;;;9.13;8.82;;;20.20;99.90;;;;;;5053185;28;20228;-65
2023/08/09 07:50:20;;;;;;;9.80;9.50;;;20.20;99.90;;;;;;5051527;28;20207;-66
2023/08/09 07:52:47;;;;;;;9.70;9.40;;;20.20;99.90;;;;;;5052354;28;20204;-66
2023/08/09 07:55:14;;;;;;;9.45;9.07;;;20.20;99.90;;;;;;5053441;28;20200;-64
2023/08/09 07:57:41;;;;;;;9.53;9.23;;;20.10;99.90;;;;;;5051988;28;20226;-67
2023/08/09 08:00:12;;;;;;;9.23;8.93;;;20.20;99.90;;;;;;5052328;28;20212;-65
2023/08/09 08:02:39;;;;;;;9.27;8.98;;;20.10;99.90;;;;;;5060126;28;20212;-64
2023/08/09 08:05:07;;;;;;;9.73;9.43;;;20.10;99.90;;;;;;5052281;28;20204;-65
2023/08/09 08:07:34;;;;;;;9.90;9.60;;;20.10;99.90;;;;;;5052100;28;20695;-66
2023/08/09 08:10:01;;;;;;;9.35;9.05;;;20.10;99.90;;;;;;5051778;28;20204;-65
2023/08/09 08:12:29;;;;;;;11.68;11.18;;;20.20;99.90;;;;;;5052378;28;20294;-66
2023/08/09 08:14:55;;;;;;;10.95;10.55;;;20.10;99.90;;;;;;5056826;28;20212;-65
2023/08/09 08:17:24;;;;;;;10.90;10.50;;;20.20;99.90;;;;;;5088830;22;20226;-67
2023/08/09 08:19:50;;;;;;;13.40;12.90;;;20.20;99.90;;;;;;5090320;28;20570;-67
2023/08/09 08:22:18;;;;;;;12.03;11.63;;;20.20;99.90;;;;;;5091823;28;20302;-67
2023/08/09 08:24:45;;;;;;;11.85;11.45;;;20.20;99.90;;;;;;5092105;28;20207;-67
2023/08/09 08:27:12;;;;;;;11.85;11.45;;;20.10;99.90;;;;;;5090961;28;20317;-68
2023/08/09 08:29:39;;;;;;;13.95;13.45;;;20.10;99.90;;;;;;5090968;28;20199;-67
2023/08/09 08:32:06;;;;;;;13.80;13.30;;;20.10;99.90;;;;;;5093558;28;20203;-67
2023/08/09 08:34:35;;;;;;;15.05;14.55;;;20.00;99.90;;;;;;5092374;28;20217;-66
2023/08/09 08:37:02;;;;;;;14.93;14.43;;;19.90;99.90;;;;;;5091580;28;20305;-65
2023/08/09 08:39:29;;;;;;;14.65;14.15;;;19.90;99.90;;;;;;5090656;28;20204;-66
2023/08/09 08:41:57;;;;;;;14.45;13.95;;;20.00;99.90;;;;;;5090936;28;20198;-66
2023/08/09 08:44:24;;;;;;;14.52;14.02;;;20.10;99.90;;;;;;5091041;28;20214;-67
2023/08/09 08:46:51;;;;;;;13.23;12.73;;;20.10;99.90;;;;;;5090823;28;20527;-67
2023/08/09 08:49:20;;;;;;;14.15;13.65;;;20.20;99.90;;;;;;5090317;28;20214;-66
2023/08/09 08:51:52;;;;;;;14.27;13.77;;;20.20;99.90;;;;;;5091192;28;20518;-67
2023/08/09 08:54:20;;;;;;;15.52;14.98;;;20.30;99.90;;;;;;5090853;28;20668;-65
2023/08/09 08:56:48;;;;;;;13.63;13.18;;;20.50;99.90;;;;;;5091402;28;20552;-65
2023/08/09 08:59:16;;;;;;;15.02;14.43;;;20.60;99.90;;;;;;5090428;28;20307;-67
2023/08/09 09:01:44;;;;;;;15.13;14.63;;;20.70;99.90;;;;;;5089901;28;20245;-66
2023/08/09 09:04:11;;;;;;;15.70;15.20;;;20.80;99.90;;;;;;5091356;28;20198;-66
2023/08/09 09:06:38;;;;;;;14.52;14.02;;;20.90;99.90;;;;;;5090798;28;20668;-66
2023/08/09 09:09:13;;;;;;;13.25;12.82;;;20.90;99.90;;;;;;5090003;28;20708;-66
2023/08/09 09:11:40;;;;;;;13.63;13.13;;;21.00;99.90;;;;;;5091200;28;20210;-67
2023/08/09 09:14:11;;;;;;;13.13;12.65;;;21.00;99.90;;;;;;5090881;28;20288;-68
2023/08/09 09:16:38;;;;;;;12.63;12.23;;;21.00;99.90;;;;;;5090752;28;20207;-66
2023/08/09 09:19:06;;;;;;;13.38;12.90;;;21.10;99.90;;;;;;5089482;28;20684;-66
2023/08/09 09:21:34;;;;;;;14.13;13.63;;;21.20;99.90;;;;;;5090852;28;20285;-67
2023/08/09 09:24:03;;;;;;;14.02;13.52;;;21.20;99.90;;;;;;5090902;28;20245;-67
2023/08/09 09:26:31;;;;;;;13.25;12.77;;;21.30;99.90;;;;;;5090834;28;20217;-67
2023/08/09 09:28:58;;;;;;;13.82;13.32;;;21.20;99.90;;;;;;5090283;28;20230;-66
2023/08/09 09:31:35;;;;;;;13.70;13.20;;;21.30;99.90;;;;;;5090097;28;20707;-67
2023/08/09 09:34:03;;;;;;;14.10;13.63;;;21.30;99.90;;;;;;5090369;28;20209;-67
2023/08/09 09:36:30;;;;;;;14.52;14.02;;;21.30;99.90;;;;;;5090908;28;20206;-67
2023/08/09 09:38:57;;;;;;;14.73;14.23;;;21.20;99.90;;;;;;5090061;28;20313;-66
2023/08/09 09:41:24;;;;;;;14.52;14.02;;;21.20;99.90;;;;;;5089428;28;20598;-66
2023/08/09 09:43:53;;;;;;;15.60;15.02;;;21.40;99.90;;;;;;5090212;28;20210;-66
2023/08/09 09:46:20;;;;;;;14.70;14.20;;;21.50;99.90;;;;;;5090333;28;20206;-65
2023/08/09 09:48:50;;;;;;;13.70;13.23;;;21.70;99.90;;;;;;5089907;28;20223;-65
2023/08/09 09:51:19;;;;;;;15.52;15.02;;;21.90;99.90;;;;;;5086613;28;20214;-66
2023/08/09 09:53:46;;;;;;;15.88;15.30;;;22.10;99.90;;;;;;5085577;28;20194;-65
2023/08/09 09:56:14;;;;;;;15.20;14.60;;;22.20;99.90;;;;;;5087579;28;20205;-66
2023/08/09 09:58:41;;;;;;;16.48;15.93;;;22.40;99.90;;;;;;5087746;28;20214;-67
2023/08/09 10:01:11;;;;;;;17.38;16.77;;;22.60;99.90;;;;;;5087400;28;20213;-66
2023/08/09 10:03:42;;;;;;;15.75;15.23;;;22.90;99.90;;;;;;5086664;28;20301;-67
2023/08/09 10:06:14;;;;;;;17.52;16.92;;;23.10;99.90;;;;;;5089224;28;20210;-67
2023/08/09 10:08:42;;;;;;;15.63;15.10;;;23.00;99.90;;;;;;5089102;28;20226;-68
2023/08/09 10:11:09;;;;;;;14.18;13.68;;;23.00;99.90;;;;;;5088854;28;20206;-67
2023/08/09 10:13:41;;;;;;;15.27;14.77;;;23.00;99.90;;;;;;5089534;28;20202;-68
2023/08/09 10:16:11;;;;;;;14.02;13.52;;;23.20;99.90;;;;;;5088654;28;20674;-67
2023/08/09 10:18:42;;;;;;;14.35;13.85;;;23.20;99.90;;;;;;5089024;28;20226;-66
2023/08/09 10:21:10;;;;;;;14.30;13.80;;;23.30;99.90;;;;;;5090978;28;20230;-67
2023/08/09 10:23:36;;;;;;;14.15;13.55;;;23.20;99.90;;;;;;5098819;28;20287;-68
2023/08/09 10:26:03;;;;;;;17.17;16.58;;;23.30;99.90;;;;;;5103728;28;20274;-67
2023/08/09 10:28:49;;;;;;;15.50;14.98;;;23.30;99.90;;;;;;5104163;28;20222;-68
2023/08/09 10:31:52;;;;;;;12.80;12.40;;;23.30;99.90;;;;;;5098753;28;20212;-68
2023/08/09 10:34:21;;;;;;;13.82;13.32;;;23.20;99.90;;;;;;5096837;28;20228;-68
2023/08/09 10:36:53;;;;;;;13.32;12.85;;;23.20;99.90;;;;;;5096505;28;20210;-67
2023/08/09 10:39:20;;;;;;;14.77;14.27;;;23.30;99.90;;;;;;5096891;28;20202;-67
2023/08/09 10:41:55;;;;;;;13.75;13.25;;;23.30;99.90;;;;;;5094035;28;20207;-67
2023/08/09 10:44:33;;;;;;;12.23;11.82;;;23.30;99.90;;;;;;5090396;28;20212;-68
2023/08/09 10:47:06;;;;;;;13.30;12.80;;;23.40;99.90;;;;;;5091168;28;20258;-68
2023/08/09 10:49:34;;;;;;;12.50;12.05;;;23.60;99.90;;;;;;5094178;28;20754;-68
2023/08/09 10:52:12;;;;;;;13.25;12.77;;;23.80;99.90;;;;;;5098640;28;20199;-67
2023/08/09 10:54:39;;;;;;;12.65;12.15;;;23.80;99.90;;;;;;5096001;28;20215;-66
2023/08/09 10:57:09;;;;;;;12.35;11.85;;;23.90;99.90;;;;;;5093917;28;20225;-68
2023/08/09 10:59:37;;;;;;;12.07;11.65;;;24.20;99.90;;;;;;5092077;28;20194;-67
2023/08/09 11:02:06;;;;;;;15.15;14.50;;;24.40;99.90;;;;;;5093287;28;20195;-67
2023/08/09 11:04:33;;;;;;;12.35;11.95;;;24.40;99.90;;;;;;5093874;28;20213;-68
2023/08/09 11:12:55;;;;;;;11.18;10.77;;;23.70;99.90;;;;;;5096940;28;20202;-66
2023/08/09 11:15:22;;;;;;;12.90;12.40;;;23.70;99.90;;;;;;5095792;28;20217;-67
2023/08/09 11:17:51;;;;;;;12.35;11.95;;;23.60;99.90;;;;;;5093790;28;20234;-68
2023/08/09 11:20:19;;;;;;;10.57;10.20;;;23.60;99.90;;;;;;5093468;28;20267;-66
2023/08/09 11:22:46;;;;;;;10.70;10.35;;;23.50;99.90;;;;;;5092921;28;20202;-66
2023/08/09 11:25:13;;;;;;;12.25;11.85;;;23.70;99.90;;;;;;5093501;28;20217;-67
2023/08/09 11:27:40;;;;;;;11.13;10.73;;;23.90;99.90;;;;;;5092371;28;20254;-67
2023/08/09 11:30:09;;;;;;;11.30;10.90;;;23.90;99.90;;;;;;5091686;28;20215;-66
2023/08/09 11:32:36;;;;;;;11.30;10.90;;;23.90;99.90;;;;;;5092823;28;20210;-66
2023/08/09 11:35:05;;;;;;;11.10;10.70;;;23.70;99.90;;;;;;5092355;28;20218;-67
2023/08/09 11:37:32;;;;;;;12.63;12.23;;;23.60;99.90;;;;;;5092426;28;20231;-66
2023/08/09 11:39:58;;;;;;;10.85;10.48;;;23.40;99.90;;;;;;5091872;28;20207;-68
2023/08/09 11:42:25;;;;;;;11.00;10.60;;;23.30;99.90;;;;;;5092613;28;20562;-66
2023/08/09 11:44:52;;;;;;;10.30;10.00;;;23.30;99.90;;;;;;5092739;28;20207;-68
2023/08/09 11:47:19;;;;;;;10.80;10.30;;;23.40;99.90;;;;;;5092354;28;20230;-65
2023/08/09 11:49:46;;;;;;;11.00;10.60;;;23.60;99.90;;;;;;5090867;28;20227;-65
2023/08/09 11:52:17;;;;;;;9.77;9.48;;;23.90;99.90;;;;;;5091565;28;20202;-68
2023/08/09 11:54:44;;;;;;;29.90;28.63;;;24.00;99.90;;;;;;5092140;28;20210;-67
2023/08/09 11:57:11;;;;;;;11.23;10.82;;;23.90;99.90;;;;;;5092321;28;20615;-67
2023/08/09 11:59:40;;;;;;;11.35;10.95;;;23.70;99.90;;;;;;5091890;28;20199;-67
2023/08/09 12:02:07;;;;;;;9.93;9.60;;;23.60;99.90;;;;;;5091203;28;20206;-67
2023/08/09 12:04:35;;;;;;;10.38;10.02;;;23.70;99.90;;;;;;5092247;28;20206;-66
2023/08/09 12:07:05;;;;;;;11.00;10.60;;;23.90;99.90;;;;;;5092059;28;20724;-68
2023/08/09 12:09:40;;;;;;;10.85;10.45;;;24.00;99.90;;;;;;5091258;28;20799;-65
2023/08/09 12:12:08;;;;;;;11.38;10.98;;;24.00;99.90;;;;;;5091845;28;20214;-66
2023/08/09 12:14:36;;;;;;;19.77;18.98;;;24.20;99.90;;;;;;5091459;28;20291;-67
2023/08/09 12:17:03;;;;;;;10.45;10.05;;;24.20;99.90;;;;;;5090766;28;20653;-66
2023/08/09 12:19:30;;;;;;;10.88;10.48;;;24.00;99.90;;;;;;5091889;28;20217;-67
2023/08/09 12:21:58;;;;;;;11.30;10.90;;;23.90;99.90;;;;;;5091396;28;20210;-66
2023/08/09 12:24:25;;;;;;;11.45;11.05;;;23.70;99.90;;;;;;5091282;28;20210;-66
2023/08/09 12:26:54;;;;;;;12.73;12.27;;;23.60;99.90;;;;;;5091754;28;20298;-68
2023/08/09 12:29:20;;;;;;;11.27;10.88;;;23.40;99.90;;;;;;5090614;28;20612;-66
2023/08/09 12:31:47;;;;;;;10.63;10.27;;;23.40;99.90;;;;;;5091127;28;20206;-67
2023/08/09 12:34:15;;;;;;;10.82;10.45;;;23.20;99.90;;;;;;5091527;28;20210;-66
2023/08/09 12:36:42;;;;;;;13.65;13.18;;;23.20;99.90;;;;;;5092043;28;20233;-67
2023/08/09 12:39:11;;;;;;;16.58;15.98;;;23.20;99.90;;;;;;5094534;28;20198;-67